createdAt,value
2018-06-15T00:00:14.208Z,11.49
2018-06-15T00:01:14.680Z,11.48
2018-06-15T00:02:15.154Z,11.46
2018-06-15T00:03:15.625Z,11.44
2018-06-15T00:04:16.099Z,11.43
2018-06-15T00:05:16.732Z,11.40
2018-06-15T00:06:17.045Z,11.39
2018-06-15T00:07:17.520Z,11.36
2018-06-15T00:08:17.991Z,11.34
2018-06-15T00:09:18.465Z,11.31
2018-06-15T00:10:18.940Z,11.30
2018-06-15T00:11:19.410Z,11.27
2018-06-15T00:12:19.881Z,11.25
2018-06-15T00:13:20.353Z,11.22
2018-06-15T00:14:20.824Z,11.19
2018-06-15T00:15:21.305Z,11.17
2018-06-15T00:16:21.768Z,11.16
2018-06-15T00:17:22.240Z,11.16
2018-06-15T00:18:22.710Z,11.12
2018-06-15T00:19:23.183Z,11.07
2018-06-15T00:20:23.653Z,11.10
2018-06-15T00:21:24.127Z,11.04
2018-06-15T00:22:24.596Z,11.02
2018-06-15T00:23:25.070Z,11.00
2018-06-15T00:24:25.538Z,10.96
2018-06-15T00:25:26.012Z,10.96
2018-06-15T00:26:26.480Z,10.93
2018-06-15T00:27:26.954Z,10.91
2018-06-15T00:28:27.423Z,10.90
2018-06-15T00:29:27.896Z,10.86
2018-06-15T00:30:28.366Z,10.86
2018-06-15T00:31:28.838Z,10.82
2018-06-15T00:32:29.311Z,10.82
2018-06-15T00:33:29.782Z,10.80
2018-06-15T00:34:30.257Z,10.79
2018-06-15T00:35:30.726Z,10.78
2018-06-15T00:36:31.200Z,10.75
2018-06-15T00:37:31.672Z,10.74
2018-06-15T00:38:32.142Z,10.70
2018-06-15T00:39:32.615Z,10.68
2018-06-15T00:40:33.239Z,10.66
2018-06-15T00:41:33.562Z,10.64
2018-06-15T00:42:34.036Z,10.62
2018-06-15T00:43:34.510Z,10.60
2018-06-15T00:44:34.982Z,10.60
2018-06-15T00:45:35.456Z,10.57
2018-06-15T00:46:35.928Z,10.56
2018-06-15T00:47:36.404Z,10.54
2018-06-15T00:48:36.878Z,10.51
2018-06-15T00:49:37.352Z,10.50
2018-06-15T00:50:37.825Z,10.49
2018-06-15T00:51:38.300Z,10.47
2018-06-15T00:52:38.775Z,10.46
2018-06-15T00:53:39.249Z,10.43
2018-06-15T00:54:39.725Z,10.42
2018-06-15T00:55:40.200Z,10.40
2018-06-15T00:56:40.675Z,10.38
2018-06-15T00:57:41.149Z,10.38
2018-06-15T00:58:41.623Z,10.36
2018-06-15T00:59:42.097Z,10.33
2018-06-15T01:00:42.574Z,10.32
2018-06-15T01:01:43.050Z,10.30
2018-06-15T01:02:43.522Z,10.28
2018-06-15T01:03:43.997Z,10.26
2018-06-15T01:04:44.475Z,10.26
2018-06-15T01:05:44.945Z,10.26
2018-06-15T01:06:45.420Z,10.24
2018-06-15T01:07:45.894Z,10.22
2018-06-15T01:08:46.366Z,10.20
2018-06-15T01:09:46.841Z,10.18
2018-06-15T01:10:47.314Z,10.17
2018-06-15T01:11:47.787Z,10.15
2018-06-15T01:12:48.261Z,10.14
2018-06-15T01:13:48.735Z,10.12
2018-06-15T01:14:49.208Z,10.10
2018-06-15T01:15:49.680Z,10.09
2018-06-15T01:16:50.152Z,10.06
2018-06-15T01:17:50.626Z,10.05
2018-06-15T01:18:51.097Z,10.03
2018-06-15T01:19:51.567Z,10.02
2018-06-15T01:20:52.092Z,10.00
2018-06-15T01:21:52.512Z,10.00
2018-06-15T01:22:52.986Z,9.97
2018-06-15T01:23:53.453Z,9.94
2018-06-15T01:24:53.925Z,9.92
2018-06-15T01:25:54.399Z,9.91
2018-06-15T01:26:54.868Z,9.87
2018-06-15T01:27:55.338Z,9.84
2018-06-15T01:28:55.809Z,9.82
2018-06-15T01:29:56.282Z,9.78
2018-06-15T01:30:56.752Z,9.74
2018-06-15T01:31:57.222Z,9.74
2018-06-15T01:32:57.694Z,9.70
2018-06-15T01:33:58.166Z,9.68
2018-06-15T01:34:58.636Z,9.64
2018-06-15T01:35:59.111Z,9.61
2018-06-15T01:36:59.579Z,9.58
2018-06-15T01:38:00.050Z,9.56
2018-06-15T01:39:00.520Z,9.54
2018-06-15T01:40:00.993Z,9.51
2018-06-15T01:41:01.515Z,9.48
2018-06-15T01:42:01.935Z,9.46
2018-06-15T01:43:02.406Z,9.44
2018-06-15T01:44:02.879Z,9.40
2018-06-15T01:45:03.350Z,9.38
2018-06-15T01:46:03.826Z,9.34
2018-06-15T01:47:04.294Z,9.33
2018-06-15T01:48:04.768Z,9.31
2018-06-15T01:49:05.241Z,9.29
2018-06-15T01:50:05.712Z,9.26
2018-06-15T01:51:06.337Z,9.25
2018-06-15T01:52:06.656Z,9.22
2018-06-15T01:53:07.130Z,9.20
2018-06-15T01:54:07.604Z,9.18
2018-06-15T01:55:08.076Z,9.16
2018-06-15T01:56:08.548Z,9.14
2018-06-15T01:57:09.028Z,9.13
2018-06-15T01:58:09.497Z,9.12
2018-06-15T01:59:09.970Z,9.07
2018-06-15T02:00:10.447Z,9.08
2018-06-15T02:01:11.108Z,9.04
2018-06-15T02:02:11.395Z,9.02
2018-06-15T02:03:11.866Z,9.00
2018-06-15T02:04:12.343Z,8.98
2018-06-15T02:05:12.817Z,8.97
2018-06-15T02:06:13.293Z,8.96
2018-06-15T02:07:13.765Z,8.94
2018-06-15T02:08:14.239Z,8.92
2018-06-15T02:09:14.716Z,8.91
2018-06-15T02:10:15.195Z,8.88
2018-06-15T02:11:15.665Z,8.84
2018-06-15T02:12:16.137Z,8.84
2018-06-15T02:13:16.613Z,8.84
2018-06-15T02:14:17.088Z,8.80
2018-06-15T02:15:17.560Z,8.76
2018-06-15T02:16:18.038Z,8.76
2018-06-15T02:17:18.509Z,8.75
2018-06-15T02:18:18.982Z,8.72
2018-06-15T02:19:19.456Z,8.68
2018-06-15T02:20:19.929Z,8.67
2018-06-15T02:21:20.403Z,8.64
2018-06-15T02:22:20.876Z,8.63
2018-06-15T02:23:21.348Z,8.62
2018-06-15T02:24:21.821Z,8.60
2018-06-15T02:25:22.292Z,8.57
2018-06-15T02:26:22.773Z,8.56
2018-06-15T02:27:23.237Z,8.54
2018-06-15T02:28:23.710Z,8.52
2018-06-15T02:29:24.182Z,8.48
2018-06-15T02:30:24.656Z,8.44
2018-06-15T02:31:25.123Z,8.42
2018-06-15T02:32:25.596Z,8.39
2018-06-15T02:33:26.067Z,8.37
2018-06-15T02:34:26.543Z,8.33
2018-06-15T02:35:27.015Z,8.30
2018-06-15T02:36:27.480Z,8.27
2018-06-15T02:37:27.950Z,8.24
2018-06-15T02:38:28.420Z,8.21
2018-06-15T02:39:28.892Z,8.18
2018-06-15T02:40:29.362Z,8.15
2018-06-15T02:41:29.835Z,8.12
2018-06-15T02:42:30.303Z,8.09
2018-06-15T02:43:30.775Z,8.06
2018-06-15T02:44:31.246Z,8.04
2018-06-15T02:45:31.810Z,8.02
2018-06-15T02:46:32.325Z,7.98
2018-06-15T02:47:32.661Z,7.96
2018-06-15T02:48:33.130Z,7.94
2018-06-15T02:49:33.600Z,7.91
2018-06-15T02:50:34.072Z,7.88
2018-06-15T02:51:34.543Z,7.88
2018-06-15T02:52:35.016Z,7.86
2018-06-15T02:53:35.488Z,7.82
2018-06-15T02:54:35.959Z,7.79
2018-06-15T02:55:36.430Z,7.78
2018-06-15T02:56:36.900Z,7.76
2018-06-15T02:57:37.372Z,7.72
2018-06-15T02:58:37.845Z,7.71
2018-06-15T02:59:38.325Z,7.67
2018-06-15T03:00:38.790Z,7.65
2018-06-15T03:01:39.262Z,7.63
2018-06-15T03:02:39.744Z,7.61
2018-06-15T03:03:40.216Z,7.59
2018-06-15T03:04:40.680Z,7.56
2018-06-15T03:05:41.153Z,7.54
2018-06-15T03:06:41.678Z,7.53
2018-06-15T03:07:42.105Z,7.52
2018-06-15T03:08:42.573Z,7.48
2018-06-15T03:09:43.047Z,7.46
2018-06-15T03:10:43.522Z,7.44
2018-06-15T03:11:44.061Z,7.42
2018-06-15T03:12:44.468Z,7.40
2018-06-15T03:13:44.942Z,7.37
2018-06-15T03:14:45.415Z,7.36
2018-06-15T03:15:45.890Z,7.33
2018-06-15T03:16:46.362Z,7.31
2018-06-15T03:17:46.838Z,7.30
2018-06-15T03:18:47.314Z,7.28
2018-06-15T03:19:47.788Z,7.26
2018-06-15T03:20:48.260Z,7.24
2018-06-15T03:21:48.736Z,7.24
2018-06-15T03:22:49.210Z,7.22
2018-06-15T03:23:49.683Z,7.20
2018-06-15T03:24:50.157Z,7.20
2018-06-15T03:25:50.634Z,7.17
2018-06-15T03:26:51.110Z,7.16
2018-06-15T03:27:51.579Z,7.14
2018-06-15T03:28:52.058Z,7.14
2018-06-15T03:29:52.526Z,7.12
2018-06-15T03:30:53.000Z,7.12
2018-06-15T03:32:53.944Z,7.08
2018-06-15T03:33:54.417Z,7.07
2018-06-15T03:34:54.892Z,7.05
2018-06-15T03:35:55.364Z,7.04
2018-06-15T03:36:55.836Z,7.02
2018-06-15T03:37:56.308Z,7.00
2018-06-15T03:38:56.779Z,6.98
2018-06-15T03:39:57.250Z,6.98
2018-06-15T03:40:57.725Z,6.96
2018-06-15T03:41:58.193Z,6.94
2018-06-15T03:42:58.665Z,6.94
2018-06-15T03:43:59.133Z,6.92
2018-06-15T03:44:59.605Z,6.91
2018-06-15T03:46:00.077Z,6.92
2018-06-15T03:48:01.021Z,6.90
2018-06-15T03:49:01.489Z,6.90
2018-06-15T03:50:01.960Z,6.90
2018-06-15T03:51:02.428Z,6.90
2018-06-15T03:52:02.899Z,6.90
2018-06-15T03:53:03.371Z,6.91
2018-06-15T03:54:03.841Z,6.90
2018-06-15T03:55:04.311Z,6.92
2018-06-15T03:56:04.783Z,6.93
2018-06-15T03:57:05.253Z,6.94
2018-06-15T03:58:05.723Z,6.94
2018-06-15T03:59:06.195Z,6.96
2018-06-15T04:00:06.665Z,6.97
2018-06-15T04:01:07.138Z,6.98
2018-06-15T04:02:07.619Z,6.98
2018-06-15T04:03:08.078Z,7.02
2018-06-15T04:04:08.552Z,7.02
2018-06-15T04:05:09.022Z,7.04
2018-06-15T04:06:09.497Z,7.06
2018-06-15T04:07:09.969Z,7.07
2018-06-15T04:08:10.439Z,7.10
2018-06-15T04:09:10.911Z,7.12
2018-06-15T04:10:11.383Z,7.14
2018-06-15T04:11:11.860Z,7.16
2018-06-15T04:12:12.327Z,7.18
2018-06-15T04:13:12.820Z,7.20
2018-06-15T04:14:13.272Z,7.22
2018-06-15T04:15:13.750Z,7.25
2018-06-15T04:16:14.221Z,7.27
2018-06-15T04:17:14.693Z,7.30
2018-06-15T04:18:15.168Z,7.34
2018-06-15T04:19:15.640Z,7.37
2018-06-15T04:20:16.115Z,7.38
2018-06-15T04:21:16.590Z,7.42
2018-06-15T04:22:17.066Z,7.46
2018-06-15T04:23:17.537Z,7.48
2018-06-15T04:24:18.015Z,7.52
2018-06-15T04:25:18.488Z,7.55
2018-06-15T04:26:18.967Z,7.58
2018-06-15T04:27:19.439Z,7.64
2018-06-15T04:28:19.912Z,7.66
2018-06-15T04:29:20.387Z,7.69
2018-06-15T04:30:20.861Z,7.74
2018-06-15T04:31:21.337Z,7.78
2018-06-15T04:32:21.810Z,7.82
2018-06-15T04:33:22.287Z,7.86
2018-06-15T04:34:22.766Z,7.90
2018-06-15T04:35:23.240Z,7.94
2018-06-15T04:36:23.711Z,7.99
2018-06-15T04:37:24.401Z,8.03
2018-06-15T04:38:24.659Z,8.08
2018-06-15T04:39:25.134Z,8.12
2018-06-15T04:40:25.608Z,8.16
2018-06-15T04:41:26.087Z,8.22
2018-06-15T04:42:26.555Z,8.27
2018-06-15T04:43:27.031Z,8.31
2018-06-15T04:44:27.503Z,8.35
2018-06-15T04:45:27.979Z,8.40
2018-06-15T04:46:28.449Z,8.45
2018-06-15T04:48:29.396Z,8.55
2018-06-15T04:49:29.868Z,8.61
2018-06-15T04:50:30.345Z,8.66
2018-06-15T04:51:30.813Z,8.69
2018-06-15T04:52:31.285Z,8.75
2018-06-15T04:53:31.757Z,8.80
2018-06-15T04:54:32.232Z,8.85
2018-06-15T04:55:32.706Z,8.90
2018-06-15T04:56:33.174Z,8.96
2018-06-15T04:57:33.646Z,9.00
2018-06-15T04:58:34.117Z,9.06
2018-06-15T04:59:34.590Z,9.12
2018-06-15T05:00:35.059Z,9.18
2018-06-15T05:01:35.536Z,9.24
2018-06-15T05:02:36.003Z,9.28
2018-06-15T05:03:36.475Z,9.34
2018-06-15T05:04:36.946Z,9.39
2018-06-15T05:05:37.418Z,9.45
2018-06-15T05:06:37.889Z,9.50
2018-06-15T05:07:38.359Z,9.56
2018-06-15T05:08:38.831Z,9.62
2018-06-15T05:09:39.305Z,9.66
2018-06-15T05:10:39.776Z,9.72
2018-06-15T05:11:40.248Z,9.78
2018-06-15T05:12:40.723Z,9.84
2018-06-15T05:13:41.192Z,9.88
2018-06-15T05:14:41.666Z,9.94
2018-06-15T05:15:42.139Z,10.00
2018-06-15T05:16:42.610Z,10.04
2018-06-15T05:17:43.236Z,10.11
2018-06-15T05:18:43.558Z,10.16
2018-06-15T05:19:44.032Z,10.18
2018-06-15T05:20:44.503Z,10.24
2018-06-15T05:21:44.982Z,10.31
2018-06-15T05:22:45.452Z,10.36
2018-06-15T05:23:45.925Z,10.41
2018-06-15T05:24:46.399Z,10.48
2018-06-15T05:25:46.896Z,10.52
2018-06-15T05:26:47.348Z,10.58
2018-06-15T05:27:47.829Z,10.65
2018-06-15T05:28:48.302Z,10.70
2018-06-15T05:29:48.774Z,10.74
2018-06-15T05:30:49.248Z,10.80
2018-06-15T05:31:49.725Z,10.85
2018-06-15T05:32:50.200Z,10.92
2018-06-15T05:33:50.674Z,10.96
2018-06-15T05:34:51.151Z,11.02
2018-06-15T05:35:51.627Z,11.07
2018-06-15T05:36:52.101Z,11.13
2018-06-15T05:37:52.580Z,11.18
2018-06-15T05:38:53.054Z,11.23
2018-06-15T05:39:53.529Z,11.30
2018-06-15T05:40:54.005Z,11.36
2018-06-15T05:41:54.479Z,11.40
2018-06-15T05:42:54.954Z,11.46
2018-06-15T05:43:55.429Z,11.52
2018-06-15T05:44:55.907Z,11.58
2018-06-15T05:45:56.379Z,11.63
2018-06-15T05:46:56.855Z,11.70
2018-06-15T05:47:57.331Z,11.74
2018-06-15T05:48:57.804Z,11.80
2018-06-15T05:49:58.284Z,11.86
2018-06-15T05:50:58.757Z,11.91
2018-06-15T05:51:59.230Z,11.97
2018-06-15T05:52:59.855Z,12.01
2018-06-15T05:54:00.178Z,12.08
2018-06-15T05:55:00.653Z,12.14
2018-06-15T05:56:01.125Z,12.20
2018-06-15T05:57:01.602Z,12.24
2018-06-15T05:58:02.093Z,12.30
2018-06-15T05:59:02.548Z,12.35
2018-06-15T06:00:03.022Z,12.40
2018-06-15T06:01:03.493Z,12.46
2018-06-15T06:02:03.971Z,12.52
2018-06-15T06:03:04.441Z,12.58
2018-06-15T06:04:04.987Z,12.63
2018-06-15T06:05:05.386Z,12.68
2018-06-15T06:06:05.861Z,12.74
2018-06-15T06:07:06.332Z,12.78
2018-06-15T06:08:06.805Z,12.84
2018-06-15T06:09:07.278Z,12.89
2018-06-15T06:10:07.749Z,12.95
2018-06-15T06:11:08.224Z,13.00
2018-06-15T06:12:08.695Z,13.04
2018-06-15T06:13:09.318Z,13.09
2018-06-15T06:14:09.639Z,13.14
2018-06-15T06:15:10.112Z,13.20
2018-06-15T06:16:10.584Z,13.25
2018-06-15T06:17:11.056Z,13.30
2018-06-15T06:19:12.011Z,13.39
2018-06-15T06:20:12.473Z,13.43
2018-06-15T06:21:12.944Z,13.49
2018-06-15T06:22:13.423Z,13.54
2018-06-15T06:23:13.892Z,13.59
2018-06-15T06:24:14.361Z,13.64
2018-06-15T06:25:14.834Z,13.68
2018-06-15T06:26:15.307Z,13.72
2018-06-15T06:27:15.781Z,13.78
2018-06-15T06:28:16.254Z,13.82
2018-06-15T06:29:16.725Z,13.87
2018-06-15T06:30:17.200Z,13.92
2018-06-15T06:31:17.676Z,13.98
2018-06-15T06:32:18.147Z,14.02
2018-06-15T06:34:19.095Z,14.11
2018-06-15T06:35:19.570Z,14.16
2018-06-15T06:36:20.044Z,14.21
2018-06-15T06:37:20.522Z,14.25
2018-06-15T06:38:20.998Z,14.30
2018-06-15T06:39:21.470Z,14.34
2018-06-15T06:40:21.945Z,14.39
2018-06-15T06:41:22.420Z,14.45
2018-06-15T06:42:22.896Z,14.50
2018-06-15T06:43:23.372Z,14.54
2018-06-15T06:44:23.850Z,14.58
2018-06-15T06:45:24.326Z,14.63
2018-06-15T06:46:24.802Z,14.67
2018-06-15T06:47:25.279Z,14.72
2018-06-15T06:48:25.805Z,14.78
2018-06-15T06:49:26.231Z,14.82
2018-06-15T06:50:26.712Z,14.86
2018-06-15T06:51:27.184Z,14.90
2018-06-15T06:52:27.661Z,14.95
2018-06-15T06:53:28.138Z,14.99
2018-06-15T06:54:28.612Z,15.03
2018-06-15T06:55:29.093Z,15.08
2018-06-15T06:56:29.565Z,15.13
2018-06-15T06:57:30.041Z,15.15
2018-06-15T06:58:30.742Z,15.21
2018-06-15T06:59:30.993Z,15.26
2018-06-15T07:00:31.474Z,15.29
2018-06-15T07:01:31.944Z,15.34
2018-06-15T07:02:32.422Z,15.37
2018-06-15T07:03:32.896Z,15.42
2018-06-15T07:04:33.373Z,15.45
2018-06-15T07:05:33.846Z,15.50
2018-06-15T07:06:34.323Z,15.54
2018-06-15T07:07:34.802Z,15.58
2018-06-15T07:08:35.273Z,15.61
2018-06-15T07:09:35.749Z,15.66
2018-06-15T07:10:36.222Z,15.70
2018-06-15T07:11:36.698Z,15.74
2018-06-15T07:12:37.173Z,15.78
2018-06-15T07:13:37.646Z,15.82
2018-06-15T07:14:38.125Z,15.86
2018-06-15T07:15:38.595Z,15.89
2018-06-15T07:16:39.070Z,15.92
2018-06-15T07:17:39.544Z,15.97
2018-06-15T07:18:40.020Z,16.00
2018-06-15T07:19:40.493Z,16.03
2018-06-15T07:20:40.967Z,16.08
2018-06-15T07:21:41.445Z,16.11
2018-06-15T07:22:41.914Z,16.15
2018-06-15T07:23:42.642Z,16.19
2018-06-15T07:24:42.863Z,16.24
2018-06-15T07:25:43.335Z,16.26
2018-06-15T07:26:43.810Z,16.30
2018-06-15T07:27:44.283Z,16.34
2018-06-15T07:28:44.908Z,16.38
2018-06-15T07:29:45.229Z,16.41
2018-06-15T07:30:45.703Z,16.46
2018-06-15T07:31:46.176Z,16.49
2018-06-15T07:32:46.649Z,16.53
2018-06-15T07:33:47.121Z,16.59
2018-06-15T07:34:47.596Z,16.62
2018-06-15T07:35:48.067Z,16.65
2018-06-15T07:36:48.542Z,16.72
2018-06-15T07:37:49.014Z,16.75
2018-06-15T07:38:49.487Z,16.80
2018-06-15T07:39:49.959Z,16.85
2018-06-15T07:40:50.431Z,16.88
2018-06-15T07:41:50.904Z,16.93
2018-06-15T07:42:51.375Z,16.97
2018-06-15T07:43:51.849Z,17.02
2018-06-15T07:44:52.322Z,17.06
2018-06-15T07:45:52.793Z,17.10
2018-06-15T07:46:53.467Z,17.15
2018-06-15T07:47:53.739Z,17.20
2018-06-15T07:48:54.213Z,17.25
2018-06-15T07:49:54.681Z,17.30
2018-06-15T07:50:55.153Z,17.32
2018-06-15T07:51:55.629Z,17.36
2018-06-15T07:52:56.102Z,17.40
2018-06-15T07:53:56.569Z,17.43
2018-06-15T07:54:57.045Z,17.48
2018-06-15T07:55:57.516Z,17.51
2018-06-15T07:56:57.987Z,17.55
2018-06-15T07:57:58.459Z,17.59
2018-06-15T07:58:58.930Z,17.64
2018-06-15T07:59:59.404Z,17.66
2018-06-15T08:00:59.876Z,17.70
2018-06-15T08:02:00.347Z,17.74
2018-06-15T08:03:00.819Z,17.76
2018-06-15T08:04:01.349Z,17.82
2018-06-15T08:05:01.765Z,17.85
2018-06-15T08:06:02.236Z,17.88
2018-06-15T08:07:02.708Z,17.92
2018-06-15T08:08:03.181Z,17.94
2018-06-15T08:09:03.659Z,17.97
2018-06-15T08:10:04.127Z,18.00
2018-06-15T08:11:04.602Z,18.04
2018-06-15T08:12:05.077Z,18.09
2018-06-15T08:13:05.549Z,18.12
2018-06-15T08:14:06.023Z,18.17
2018-06-15T08:15:06.496Z,18.21
2018-06-15T08:16:06.973Z,18.24
2018-06-15T08:17:07.447Z,18.27
2018-06-15T08:18:07.921Z,18.32
2018-06-15T08:19:08.448Z,18.36
2018-06-15T08:20:08.873Z,18.40
2018-06-15T08:21:09.349Z,18.45
2018-06-15T08:22:09.824Z,18.49
2018-06-15T08:23:10.302Z,18.52
2018-06-15T08:24:10.777Z,18.56
2018-06-15T08:25:11.255Z,18.61
2018-06-15T08:26:11.744Z,18.64
2018-06-15T08:27:12.207Z,18.69
2018-06-15T08:28:12.687Z,18.75
2018-06-15T08:29:13.159Z,18.79
2018-06-15T08:30:13.639Z,18.84
2018-06-15T08:31:14.114Z,18.88
2018-06-15T08:32:14.591Z,18.94
2018-06-15T08:33:15.070Z,18.98
2018-06-15T08:34:15.594Z,19.03
2018-06-15T08:35:16.025Z,19.07
2018-06-15T08:36:16.502Z,19.11
2018-06-15T08:37:16.980Z,19.18
2018-06-15T08:38:17.452Z,19.24
2018-06-15T08:40:18.411Z,19.33
2018-06-15T08:41:18.887Z,19.41
2018-06-15T08:42:19.420Z,19.44
2018-06-15T08:43:19.838Z,19.51
2018-06-15T08:44:20.517Z,19.58
2018-06-15T08:45:20.793Z,19.62
2018-06-15T08:46:21.267Z,19.68
2018-06-15T08:47:21.749Z,19.74
2018-06-15T08:48:22.218Z,19.79
2018-06-15T08:49:22.898Z,19.86
2018-06-15T08:50:23.197Z,19.92
2018-06-15T08:51:23.853Z,19.96
2018-06-15T08:52:24.129Z,20.02
2018-06-15T08:53:24.679Z,20.08
2018-06-15T08:54:25.074Z,20.13
2018-06-15T08:55:25.553Z,20.18
2018-06-15T08:56:26.030Z,20.21
2018-06-15T08:57:26.503Z,20.25
2018-06-15T08:58:27.057Z,20.29
2018-06-15T09:00:27.936Z,20.36
2018-06-15T09:01:28.409Z,20.42
2018-06-15T09:02:28.887Z,20.46
2018-06-15T09:03:29.363Z,20.48
2018-06-15T09:04:29.838Z,20.53
2018-06-15T09:05:30.313Z,20.56
2018-06-15T09:06:30.787Z,20.60
2018-06-15T09:07:31.538Z,20.64
2018-06-15T09:08:31.736Z,20.68
2018-06-15T09:09:32.212Z,20.70
2018-06-15T09:10:32.685Z,20.72
2018-06-15T09:11:33.169Z,20.75
2018-06-15T09:12:33.636Z,20.77
2018-06-15T09:13:34.112Z,20.79
2018-06-15T09:14:34.637Z,20.84
2018-06-15T09:15:35.062Z,20.85
2018-06-15T09:16:35.541Z,20.88
2018-06-15T09:17:36.218Z,20.91
2018-06-15T09:18:36.489Z,20.95
2018-06-15T09:19:36.964Z,20.98
2018-06-15T09:20:37.512Z,21.00
2018-06-15T09:21:38.119Z,21.02
2018-06-15T09:22:38.389Z,21.04
2018-06-15T09:25:39.811Z,21.11
2018-06-15T09:26:40.284Z,21.15
2018-06-15T09:27:40.764Z,21.14
2018-06-15T09:28:41.235Z,21.16
2018-06-15T09:29:41.758Z,21.18
2018-06-15T09:30:42.187Z,21.18
2018-06-15T09:31:42.861Z,21.19
2018-06-15T09:32:43.188Z,21.22
2018-06-15T09:33:43.608Z,21.24
2018-06-15T09:34:44.079Z,21.24
2018-06-15T09:35:44.556Z,21.23
2018-06-15T09:36:45.029Z,21.25
2018-06-15T09:37:45.505Z,21.27
2018-06-15T09:38:45.980Z,21.28
2018-06-15T09:39:46.492Z,21.29
2018-06-15T09:40:46.927Z,21.30
2018-06-15T09:41:47.404Z,21.32
2018-06-15T09:42:47.876Z,21.32
2018-06-15T09:43:48.554Z,21.32
2018-06-15T09:44:48.826Z,21.33
2018-06-15T09:45:49.360Z,21.34
2018-06-15T09:46:49.775Z,21.35
2018-06-15T09:47:50.250Z,21.36
2018-06-15T09:48:50.725Z,21.36
2018-06-15T09:50:51.674Z,21.36
2018-06-15T09:51:52.347Z,21.38
2018-06-15T09:52:52.682Z,21.40
2018-06-15T09:54:53.567Z,21.38
2018-06-15T09:55:54.045Z,21.38
2018-06-15T09:56:54.518Z,21.40
2018-06-15T09:57:55.197Z,21.38
2018-06-15T09:58:55.544Z,21.38
2018-06-15T09:59:56.396Z,21.40
2018-06-15T10:00:56.418Z,21.38
2018-06-15T10:01:57.097Z,21.39
2018-06-15T10:02:57.362Z,21.38
2018-06-15T10:03:57.844Z,21.38
2018-06-15T10:04:58.311Z,21.38
2018-06-15T10:05:58.990Z,21.36
2018-06-15T10:06:59.259Z,21.34
2018-06-15T10:07:59.944Z,21.35
2018-06-15T10:09:00.213Z,21.33
2018-06-15T10:10:00.684Z,21.33
2018-06-15T10:11:01.359Z,21.33
2018-06-15T10:12:01.632Z,21.32
2018-06-15T10:13:02.108Z,21.30
2018-06-15T10:14:02.583Z,21.29
2018-06-15T10:15:03.257Z,21.29
2018-06-15T10:16:03.532Z,21.29
2018-06-15T10:17:04.006Z,21.28
2018-06-15T10:19:05.154Z,21.28
2018-06-15T10:20:05.426Z,21.27
2018-06-15T10:22:06.374Z,21.27
2018-06-15T10:23:06.848Z,21.26
2018-06-15T10:24:07.322Z,21.26
2018-06-15T10:25:07.849Z,21.26
2018-06-15T10:26:08.474Z,21.25
2018-06-15T10:27:08.746Z,21.25
2018-06-15T10:28:09.467Z,21.24
2018-06-15T10:29:09.694Z,21.24
2018-06-15T10:30:10.171Z,21.24
2018-06-15T10:31:10.641Z,21.26
2018-06-15T10:32:11.114Z,21.25
2018-06-15T10:33:11.591Z,21.24
2018-06-15T10:34:12.066Z,21.24
2018-06-15T10:35:12.752Z,21.24
2018-06-15T10:36:13.011Z,21.23
2018-06-15T10:37:13.483Z,21.23
2018-06-15T10:38:13.963Z,21.24
2018-06-15T10:39:14.480Z,21.22
2018-06-15T10:40:14.905Z,21.22
2018-06-15T10:41:15.382Z,21.22
2018-06-15T10:42:15.933Z,21.20
2018-06-15T10:44:17.014Z,21.20
2018-06-15T10:45:17.283Z,21.20
2018-06-15T10:46:17.754Z,21.18
2018-06-15T10:47:18.229Z,21.19
2018-06-15T10:48:18.700Z,21.18
2018-06-15T10:49:19.175Z,21.17
2018-06-15T10:50:19.700Z,21.17
2018-06-15T10:51:20.122Z,21.18
2018-06-15T10:52:20.600Z,21.18
2018-06-15T10:53:21.071Z,21.17
2018-06-15T10:54:21.547Z,21.15
2018-06-15T10:55:22.020Z,21.15
2018-06-15T10:56:22.552Z,21.15
2018-06-15T10:58:23.444Z,21.14
2018-06-15T10:59:23.914Z,21.15
2018-06-15T11:00:24.391Z,21.13
2018-06-15T11:01:24.864Z,21.14
2018-06-15T11:02:25.363Z,21.14
2018-06-15T11:03:25.814Z,21.14
2018-06-15T11:04:26.289Z,21.14
2018-06-15T11:07:27.710Z,21.16
2018-06-15T11:08:28.182Z,21.16
2018-06-15T11:09:28.662Z,21.14
2018-06-15T11:10:29.131Z,21.14
2018-06-15T11:11:29.610Z,21.16
2018-06-15T11:12:30.285Z,21.16
2018-06-15T11:13:30.628Z,21.15
2018-06-15T11:14:31.047Z,21.16
2018-06-15T11:15:31.558Z,21.17
2018-06-15T11:16:31.976Z,21.16
2018-06-15T11:17:32.450Z,21.16
2018-06-15T11:18:32.929Z,21.14
2018-06-15T11:19:33.399Z,21.15
2018-06-15T11:20:34.279Z,21.15
2018-06-15T11:21:34.347Z,21.15
2018-06-15T11:22:34.825Z,21.14
2018-06-15T11:24:35.771Z,21.14
2018-06-15T11:25:36.244Z,21.13
2018-06-15T11:26:36.720Z,21.13
2018-06-15T11:27:37.200Z,21.12
2018-06-15T11:29:38.145Z,21.10
2018-06-15T11:30:38.666Z,21.09
2018-06-15T11:31:39.090Z,21.08
2018-06-15T11:33:40.244Z,21.06
2018-06-15T11:34:40.517Z,21.05
2018-06-15T11:35:41.193Z,21.05
2018-06-15T11:36:41.469Z,21.05
2018-06-15T11:37:41.935Z,21.05
2018-06-15T11:38:42.412Z,21.04
2018-06-15T11:39:43.083Z,21.03
2018-06-15T11:40:43.564Z,21.01
2018-06-15T11:41:43.831Z,21.01
2018-06-15T11:42:44.305Z,21.00
2018-06-15T11:43:44.780Z,20.99
2018-06-15T11:44:45.257Z,21.00
2018-06-15T11:45:45.729Z,20.98
2018-06-15T11:46:46.204Z,20.99
2018-06-15T11:47:46.680Z,20.98
2018-06-15T11:49:47.634Z,21.02
2018-06-15T11:50:48.098Z,21.02
2018-06-15T11:51:48.572Z,21.02
2018-06-15T11:52:49.252Z,21.04
2018-06-15T11:53:49.526Z,21.04
2018-06-15T11:54:49.997Z,21.05
2018-06-15T11:55:50.875Z,21.05
2018-06-15T11:56:50.944Z,21.04
2018-06-15T11:57:51.417Z,21.05
2018-06-15T11:58:52.502Z,21.07
2018-06-15T11:59:52.369Z,21.07
2018-06-15T12:01:54.739Z,21.09
2018-06-15T12:02:53.994Z,21.08
2018-06-15T12:03:54.469Z,21.10
2018-06-15T12:04:54.739Z,21.12
2018-06-15T12:05:55.294Z,21.12
2018-06-15T12:06:55.691Z,21.12
2018-06-15T12:07:56.188Z,21.12
2018-06-15T12:08:56.645Z,21.12
2018-06-15T12:09:57.183Z,21.14
2018-06-15T12:10:57.786Z,21.12
2018-06-15T12:11:58.059Z,21.13
2018-06-15T12:12:58.538Z,21.12
2018-06-15T12:13:59.012Z,21.12
2018-06-15T12:14:59.482Z,21.12
2018-06-15T12:16:00.038Z,21.11
2018-06-15T12:17:00.432Z,21.09
2018-06-15T12:18:00.906Z,21.10
2018-06-15T12:19:01.988Z,21.10
2018-06-15T12:20:02.056Z,21.08
2018-06-15T12:21:02.540Z,21.07
2018-06-15T12:22:02.804Z,21.06
2018-06-15T12:24:03.754Z,21.04
2018-06-15T12:25:04.229Z,21.04
2018-06-15T12:26:04.751Z,21.04
2018-06-15T12:27:05.180Z,21.02
2018-06-15T12:28:05.655Z,21.02
2018-06-15T12:29:06.123Z,21.01
2018-06-15T12:30:06.601Z,21.00
2018-06-15T12:31:07.124Z,21.00
2018-06-15T12:32:07.752Z,21.00
2018-06-15T12:33:08.022Z,20.99
2018-06-15T12:34:08.528Z,21.00
2018-06-15T12:36:09.647Z,20.99
2018-06-15T12:37:09.921Z,20.98
2018-06-15T12:38:10.597Z,20.98
2018-06-15T12:39:11.069Z,20.98
2018-06-15T12:40:11.549Z,20.97
2018-06-15T12:41:12.018Z,20.99
2018-06-15T12:42:12.291Z,20.97
2018-06-15T12:43:12.768Z,20.97
2018-06-15T12:44:13.444Z,20.97
2018-06-15T12:45:13.717Z,20.96
2018-06-15T12:46:14.392Z,20.95
2018-06-15T12:47:14.664Z,20.96
2018-06-15T12:49:15.617Z,20.94
2018-06-15T12:50:16.087Z,20.92
2018-06-15T12:51:16.580Z,20.92
2018-06-15T12:52:17.039Z,20.93
2018-06-15T12:53:18.712Z,20.92
2018-06-15T12:54:19.607Z,20.91
2018-06-15T12:55:18.459Z,20.91
2018-06-15T12:56:19.138Z,20.90
2018-06-15T12:57:19.407Z,20.90
2018-06-15T12:58:19.886Z,20.88
2018-06-15T12:59:20.563Z,20.86
2018-06-15T13:00:21.035Z,20.86
2018-06-15T13:01:21.307Z,20.86
2018-06-15T13:02:21.986Z,20.85
2018-06-15T13:03:22.257Z,20.86
2018-06-15T13:05:23.482Z,20.84
2018-06-15T13:06:23.878Z,20.86
2018-06-15T13:07:24.153Z,20.83
2018-06-15T13:08:24.622Z,20.84
2018-06-15T13:09:25.178Z,20.84
2018-06-15T13:10:25.574Z,20.85
2018-06-15T13:11:26.252Z,20.84
2018-06-15T13:12:26.726Z,20.83
2018-06-15T13:13:27.000Z,20.83
2018-06-15T13:14:27.469Z,20.84
2018-06-15T13:15:28.351Z,20.82
2018-06-15T13:16:28.620Z,20.82
2018-06-15T13:17:28.893Z,20.81
2018-06-15T13:18:29.367Z,20.80
2018-06-15T13:19:29.847Z,20.79
2018-06-15T13:20:30.314Z,20.79
2018-06-15T13:21:30.993Z,20.80
2018-06-15T13:22:31.265Z,20.78
2018-06-15T13:23:31.948Z,20.76
2018-06-15T13:24:32.490Z,20.76
2018-06-15T13:26:33.364Z,20.73
2018-06-15T13:27:33.841Z,20.73
2018-06-15T13:28:34.109Z,20.72
2018-06-15T13:29:34.847Z,20.72
2018-06-15T13:30:35.059Z,20.72
2018-06-15T13:31:35.533Z,20.70
2018-06-15T13:32:36.005Z,20.70
2018-06-15T13:33:36.488Z,20.68